Archival Weather

Chicago O'Hare International

Chicago, Illinois (KORD)

Report from: Monday, January 23, 2023 12:42 AM CST
Current time: Thursday, July 18, 2024 10:11 PM CDT

Current weather – Weather history – Daily summaries
Weather forecast

Present weatherFZDZGSSN, mist
Temperature-3.3°C (26.1°F)
Wind chill-7.0°C (19.4°F)
Dew point-5.6°C (21.9°F)
Winds 5 kts (2.6 m/s, 5.8 mph) North-Northwest (330°)
Visibility2.5 mi. (4 km)
Clouds Ceiling: Overcast 500 ft. (152 m)
Altimeter29.95 in.Hg (1014 mB)
PrecipitiationTrace
Precip. events Drizzle began 5:59 AM
Snow began 5:59 AM
Snow pellets began 6:42 AM
Relative humidity84 %
Density altitude-2,223 ft. (-677 m)
Remarks System requires maintenance
Automated weather observing station with precipitation discriminator
Light
Flight conditions Instrument Meteorological Conditions
Raw dataKORD 230642Z 33005KT 2 1/2SM -FZDZGSSN BR OVC005 M03/M06 A2995 RMK AO2 FZDZB0559SNB0559GSB42 GS LGT P0000 I1000 T10331056 $
An error has occurred. This application may no longer respond until reloaded. Reload 🗙